createdAt,value
2022-07-28T00:01:26.755Z,1.60
2022-07-28T00:03:28.614Z,1.55
2022-07-28T00:05:30.198Z,1.50
2022-07-28T00:07:32.882Z,2.13
2022-07-28T00:09:34.606Z,1.63
2022-07-28T00:11:36.084Z,1.05
2022-07-28T00:13:51.946Z,1.10
2022-07-28T00:15:53.458Z,1.27
2022-07-28T00:17:55.237Z,1.55
2022-07-28T00:19:56.707Z,1.10
2022-07-28T00:21:59.724Z,0.95
2022-07-28T00:24:01.237Z,1.05
2022-07-28T00:26:02.979Z,0.60
2022-07-28T00:28:04.555Z,0.73
2022-07-28T00:30:06.973Z,1.45
2022-07-28T00:32:08.593Z,0.80
2022-07-28T00:34:11.986Z,0.65
2022-07-28T00:38:24.711Z,0.60
2022-07-28T00:40:53.241Z,0.68
2022-07-28T00:43:02.989Z,0.57
2022-07-28T00:45:13.566Z,0.70
2022-07-28T00:47:23.903Z,0.80
2022-07-28T00:49:33.590Z,0.55
2022-07-28T00:51:45.765Z,0.73
2022-07-28T00:53:56.378Z,1.25
2022-07-28T00:56:06.638Z,0.70
2022-07-28T00:58:16.757Z,0.65
2022-07-28T01:00:19.415Z,0.65
2022-07-28T01:02:21.208Z,0.68
2022-07-28T01:04:23.312Z,0.70
2022-07-28T01:06:27.944Z,0.50
2022-07-28T01:08:32.467Z,0.68
2022-07-28T01:10:57.007Z,1.27
2022-07-28T01:13:03.066Z,0.70
2022-07-28T01:15:07.864Z,0.77
2022-07-28T01:17:15.026Z,0.75
2022-07-28T01:19:19.495Z,0.57
2022-07-28T01:21:28.519Z,0.57
2022-07-28T01:23:33.102Z,0.60
2022-07-28T01:25:50.349Z,0.60
2022-07-28T01:27:54.541Z,0.50
2022-07-28T01:30:11.626Z,0.80
2022-07-28T01:32:14.245Z,0.63
2022-07-28T01:34:20.080Z,0.60
2022-07-28T01:36:23.354Z,0.50
2022-07-28T01:38:25.724Z,0.68
2022-07-28T01:40:29.600Z,0.70
2022-07-28T01:42:33.400Z,1.02
2022-07-28T01:44:38.048Z,0.50
2022-07-28T01:46:41.013Z,0.57
2022-07-28T01:48:44.178Z,0.90
2022-07-28T01:50:47.234Z,0.63
2022-07-28T01:52:49.732Z,0.57
2022-07-28T01:54:53.295Z,0.35
2022-07-28T01:56:56.093Z,0.63
2022-07-28T01:58:59.374Z,1.88
2022-07-28T02:01:01.540Z,0.77
2022-07-28T02:03:07.007Z,0.70
2022-07-28T02:05:09.862Z,0.77
2022-07-28T02:07:12.247Z,0.65
2022-07-28T02:09:14.382Z,0.73
2022-07-28T02:11:34.650Z,0.75
2022-07-28T02:13:36.769Z,0.70
2022-07-28T02:15:39.370Z,0.75
2022-07-28T02:17:42.516Z,0.90
2022-07-28T02:19:45.127Z,0.83
2022-07-28T02:21:50.078Z,0.77
2022-07-28T02:23:52.323Z,0.60
2022-07-28T02:25:54.998Z,0.77
2022-07-28T02:28:02.051Z,0.95
2022-07-28T02:30:15.597Z,0.88
2022-07-28T02:32:27.934Z,0.60
2022-07-28T02:34:31.984Z,0.85
2022-07-28T02:36:37.791Z,0.60
2022-07-28T02:38:42.331Z,0.90
2022-07-28T02:40:44.379Z,0.80
2022-07-28T02:42:47.314Z,0.98
2022-07-28T02:44:52.516Z,1.23
2022-07-28T02:46:56.282Z,1.05
2022-07-28T02:49:04.113Z,0.50
2022-07-28T02:51:06.980Z,0.80
2022-07-28T02:53:15.771Z,0.88
2022-07-28T02:55:18.655Z,0.55
2022-07-28T02:57:20.693Z,0.98
2022-07-28T02:59:23.354Z,1.05
2022-07-28T03:01:25.255Z,0.60
2022-07-28T03:03:27.297Z,1.10
2022-07-28T03:05:29.001Z,0.98
2022-07-28T03:07:32.003Z,0.82
2022-07-28T03:09:40.482Z,1.17
2022-07-28T03:11:54.145Z,0.77
2022-07-28T03:13:55.750Z,1.20
2022-07-28T03:15:57.474Z,0.73
2022-07-28T03:18:03.561Z,1.08
2022-07-28T03:20:05.780Z,1.10
2022-07-28T03:22:10.316Z,1.20
2022-07-28T03:24:12.424Z,1.23
2022-07-28T03:26:17.650Z,1.67
2022-07-28T03:28:21.392Z,0.90
2022-07-28T03:30:26.974Z,0.85
2022-07-28T03:32:30.467Z,1.10
2022-07-28T03:34:32.019Z,0.80
2022-07-28T03:36:39.992Z,0.68
2022-07-28T03:38:45.699Z,1.17
2022-07-28T03:40:47.959Z,0.70
2022-07-28T03:42:57.406Z,1.38
2022-07-28T03:45:06.885Z,0.90
2022-07-28T03:47:16.694Z,1.40
2022-07-28T03:49:27.181Z,0.90
2022-07-28T03:51:38.214Z,2.28
2022-07-28T03:53:48.851Z,1.00
2022-07-28T03:55:58.796Z,1.80
2022-07-28T03:58:07.916Z,1.20
2022-07-28T04:00:20.134Z,0.88
2022-07-28T04:02:30.959Z,0.80
2022-07-28T04:04:34.335Z,1.20
2022-07-28T04:06:36.186Z,0.75
2022-07-28T04:08:37.686Z,1.08
2022-07-28T04:10:39.636Z,0.85
2022-07-28T04:12:47.952Z,0.80
2022-07-28T04:14:51.070Z,0.90
2022-07-28T04:16:52.780Z,1.00
2022-07-28T04:18:54.371Z,0.70
2022-07-28T04:20:55.964Z,0.70
2022-07-28T04:22:57.641Z,1.20
2022-07-28T04:24:59.271Z,1.05
2022-07-28T04:27:00.731Z,0.95
2022-07-28T04:29:03.345Z,0.90
2022-07-28T04:31:05.186Z,0.73
2022-07-28T04:33:06.923Z,1.30
2022-07-28T04:35:11.974Z,1.40
2022-07-28T04:37:15.664Z,0.80
2022-07-28T04:39:17.211Z,1.58
2022-07-28T04:41:18.672Z,0.98
2022-07-28T04:43:20.149Z,1.00
2022-07-28T04:45:24.906Z,0.90
2022-07-28T04:47:26.758Z,1.27
2022-07-28T04:49:28.225Z,1.58
2022-07-28T04:51:31.403Z,1.27
2022-07-28T04:53:32.839Z,1.08
2022-07-28T04:55:35.137Z,1.00
2022-07-28T04:57:40.226Z,1.00
2022-07-28T04:59:42.243Z,0.85
2022-07-28T05:01:45.094Z,1.00
2022-07-28T05:03:46.766Z,1.27
2022-07-28T05:05:49.059Z,1.30
2022-07-28T05:07:56.177Z,0.88
2022-07-28T05:09:57.732Z,1.00
2022-07-28T05:11:59.220Z,1.20
2022-07-28T05:14:00.934Z,0.90
2022-07-28T05:16:03.102Z,1.45
2022-07-28T05:18:05.173Z,1.63
2022-07-28T05:20:08.496Z,1.23
2022-07-28T05:22:10.018Z,1.00
2022-07-28T05:24:13.704Z,1.63
2022-07-28T05:28:17.148Z,1.15
2022-07-28T05:30:20.184Z,1.27
2022-07-28T05:32:21.761Z,1.30
2022-07-28T05:34:23.361Z,1.10
2022-07-28T05:36:24.883Z,1.10
2022-07-28T05:38:27.469Z,1.17
2022-07-28T05:40:30.015Z,1.02
2022-07-28T05:42:35.909Z,0.88
2022-07-28T05:44:38.490Z,1.27
2022-07-28T05:46:40.151Z,3.13
2022-07-28T05:48:41.606Z,1.30
2022-07-28T05:50:43.063Z,0.98
2022-07-28T05:52:45.277Z,1.27
2022-07-28T05:54:46.779Z,1.30
2022-07-28T05:56:50.321Z,1.63
2022-07-28T05:58:53.115Z,1.90
2022-07-28T06:00:57.828Z,1.20
2022-07-28T06:03:03.170Z,1.40
2022-07-28T06:05:06.545Z,1.17
2022-07-28T06:07:08.077Z,1.60
2022-07-28T06:09:10.225Z,1.38
2022-07-28T06:11:11.993Z,1.63
2022-07-28T06:13:21.984Z,1.33
2022-07-28T06:15:24.987Z,1.55
2022-07-28T06:17:26.696Z,1.30
2022-07-28T06:19:28.148Z,1.42
2022-07-28T06:21:30.015Z,1.30
2022-07-28T06:23:31.469Z,1.52
2022-07-28T06:25:33.054Z,1.20
2022-07-28T06:27:34.579Z,1.60
2022-07-28T06:29:36.301Z,1.17
2022-07-28T06:31:38.987Z,1.00
2022-07-28T06:33:40.753Z,1.40
2022-07-28T06:35:46.506Z,1.63
2022-07-28T06:37:52.467Z,2.10
2022-07-28T06:39:55.324Z,1.70
2022-07-28T06:41:56.931Z,1.42
2022-07-28T06:44:08.439Z,1.45
2022-07-28T06:46:11.799Z,1.48
2022-07-28T06:48:28.760Z,1.58
2022-07-28T06:50:33.530Z,1.65
2022-07-28T06:52:41.855Z,1.50
2022-07-28T06:54:49.063Z,1.60
2022-07-28T06:56:58.198Z,1.30
2022-07-28T06:59:06.812Z,1.42
2022-07-28T07:01:11.885Z,1.42
2022-07-28T07:03:18.298Z,1.05
2022-07-28T07:05:27.500Z,1.70
2022-07-28T07:07:36.549Z,1.33
2022-07-28T07:09:49.315Z,1.75
2022-07-28T07:11:52.491Z,1.73
2022-07-28T07:13:54.396Z,1.63
2022-07-28T07:15:56.030Z,1.92
2022-07-28T07:17:57.622Z,1.30
2022-07-28T07:19:59.235Z,1.35
2022-07-28T07:22:00.677Z,1.23
2022-07-28T07:24:02.774Z,1.45
2022-07-28T07:26:04.390Z,1.30
2022-07-28T07:28:05.956Z,1.55
2022-07-28T07:30:07.995Z,1.20
2022-07-28T07:32:10.918Z,1.95
2022-07-28T07:34:12.921Z,1.60
2022-07-28T07:36:14.643Z,1.40
2022-07-28T07:38:16.202Z,1.77
2022-07-28T07:40:17.883Z,1.70
2022-07-28T07:42:19.562Z,1.17
2022-07-28T07:44:26.320Z,1.52
2022-07-28T07:46:27.868Z,1.00
2022-07-28T07:48:29.357Z,1.00
2022-07-28T07:50:30.890Z,1.05
2022-07-28T07:52:33.299Z,1.30
2022-07-28T07:54:35.199Z,1.13
2022-07-28T07:56:36.976Z,1.75
2022-07-28T07:58:38.451Z,1.35
2022-07-28T08:00:40.399Z,1.60
2022-07-28T08:02:42.218Z,2.08
2022-07-28T08:04:44.202Z,1.30
2022-07-28T08:06:46.290Z,1.65
2022-07-28T08:08:48.757Z,0.85
2022-07-28T08:10:51.135Z,1.15
2022-07-28T08:12:53.027Z,1.02
2022-07-28T08:14:55.074Z,1.38
2022-07-28T08:16:58.531Z,1.15
2022-07-28T08:19:00.235Z,1.60
2022-07-28T08:21:01.785Z,1.05
2022-07-28T08:23:03.523Z,1.42
2022-07-28T08:25:05.287Z,1.20
2022-07-28T08:27:07.197Z,2.65
2022-07-28T08:29:09.482Z,1.17
2022-07-28T08:31:11.007Z,0.93
2022-07-28T08:33:12.720Z,1.20
2022-07-28T08:35:32.322Z,1.42
2022-07-28T08:37:35.605Z,0.70
2022-07-28T08:39:37.119Z,0.98
2022-07-28T08:41:43.718Z,0.90
2022-07-28T08:43:45.624Z,0.75
2022-07-28T08:45:48.159Z,1.10
2022-07-28T08:48:07.907Z,0.98
2022-07-28T08:50:12.943Z,0.98
2022-07-28T08:52:14.735Z,0.90
2022-07-28T08:54:17.221Z,1.02
2022-07-28T08:56:19.167Z,0.87
2022-07-28T08:58:21.043Z,1.13
2022-07-28T09:00:23.370Z,1.00
2022-07-28T09:02:29.323Z,1.27
2022-07-28T09:04:34.151Z,1.08
2022-07-28T09:06:41.935Z,1.55
2022-07-28T09:08:43.668Z,1.30
2022-07-28T09:10:45.685Z,1.27
2022-07-28T09:12:47.269Z,1.02
2022-07-28T09:14:49.024Z,0.88
2022-07-28T09:16:50.641Z,0.95
2022-07-28T09:18:52.089Z,1.10
2022-07-28T09:20:53.699Z,0.80
2022-07-28T09:22:58.104Z,1.00
2022-07-28T09:25:02.214Z,0.95
2022-07-28T09:27:06.718Z,1.20
2022-07-28T09:29:09.092Z,1.30
2022-07-28T09:31:11.092Z,1.02
2022-07-28T09:33:42.397Z,1.20
2022-07-28T09:35:42.489Z,0.98
2022-07-28T09:37:44.028Z,1.10
2022-07-28T09:39:46.368Z,1.25
2022-07-28T09:41:55.710Z,0.90
2022-07-28T09:43:57.219Z,0.70
2022-07-28T09:46:06.422Z,0.90
2022-07-28T09:48:14.523Z,0.70
2022-07-28T09:50:21.038Z,1.15
2022-07-28T09:52:39.313Z,1.25
2022-07-28T09:55:05.870Z,1.17
2022-07-28T09:57:13.040Z,0.90
2022-07-28T09:59:21.249Z,1.10
2022-07-28T10:01:24.767Z,0.75
2022-07-28T10:03:29.973Z,1.10
2022-07-28T10:05:41.815Z,0.80
2022-07-28T10:07:54.069Z,0.47
2022-07-28T10:10:09.342Z,0.70
2022-07-28T10:12:22.829Z,0.80
2022-07-28T10:14:34.316Z,1.67
2022-07-28T10:16:42.072Z,1.17
2022-07-28T10:18:43.635Z,0.80
2022-07-28T10:20:45.734Z,0.93
2022-07-28T10:22:47.301Z,0.80
2022-07-28T10:24:52.753Z,0.82
2022-07-28T10:26:56.671Z,1.58
2022-07-28T10:29:00.181Z,1.02
2022-07-28T10:33:05.360Z,0.90
2022-07-28T10:35:11.456Z,1.20
2022-07-28T10:37:21.411Z,1.27
2022-07-28T10:39:24.182Z,0.93
2022-07-28T10:41:30.058Z,1.10
2022-07-28T10:43:32.095Z,1.08
2022-07-28T10:45:55.112Z,1.10
2022-07-28T10:47:56.113Z,0.65
2022-07-28T10:49:57.815Z,0.90
2022-07-28T10:52:04.949Z,0.88
2022-07-28T10:54:17.781Z,0.88
2022-07-28T10:56:26.915Z,0.90
2022-07-28T10:58:29.062Z,0.70
2022-07-28T11:00:52.806Z,0.80
2022-07-28T11:07:10.921Z,0.63
2022-07-28T11:09:15.229Z,0.70
2022-07-28T11:11:36.828Z,0.60
2022-07-28T11:13:41.286Z,0.75
2022-07-28T11:15:43.021Z,0.93
2022-07-28T11:17:56.582Z,0.68
2022-07-28T11:20:26.699Z,0.60
2022-07-28T11:22:29.212Z,0.85
2022-07-28T11:24:51.780Z,0.95
2022-07-28T11:26:54.355Z,0.98
2022-07-28T11:29:08.285Z,0.93
2022-07-28T11:31:09.878Z,0.73
2022-07-28T11:33:11.418Z,0.50
2022-07-28T11:35:12.977Z,0.57
2022-07-28T11:37:15.359Z,1.00
2022-07-28T11:39:26.843Z,1.20
2022-07-28T11:41:32.241Z,1.05
2022-07-28T11:43:38.989Z,1.05
2022-07-28T11:45:47.296Z,0.77
2022-07-28T11:48:13.106Z,0.63
2022-07-28T11:50:15.607Z,0.73
2022-07-28T11:52:18.065Z,0.70
2022-07-28T11:54:21.100Z,0.70
2022-07-28T11:56:23.993Z,1.08
2022-07-28T11:58:25.950Z,1.23
2022-07-28T12:00:29.986Z,1.10
2022-07-28T12:02:33.221Z,0.60
2022-07-28T12:04:34.987Z,0.90
2022-07-28T12:06:38.801Z,0.88
2022-07-28T12:08:52.513Z,0.75
2022-07-28T12:10:56.119Z,0.70
2022-07-28T12:13:05.455Z,0.60
2022-07-28T12:15:07.610Z,1.30
2022-07-28T12:17:10.665Z,1.10
2022-07-28T12:19:17.867Z,0.80
2022-07-28T12:21:47.674Z,0.57
2022-07-28T12:23:50.004Z,0.60
2022-07-28T12:25:51.557Z,1.00
2022-07-28T12:27:54.643Z,1.02
2022-07-28T12:30:00.349Z,1.00
2022-07-28T12:32:05.166Z,0.52
2022-07-28T12:34:07.446Z,1.00
2022-07-28T12:36:09.143Z,1.20
2022-07-28T12:38:11.056Z,0.85
2022-07-28T12:40:14.271Z,0.70
2022-07-28T12:42:15.785Z,0.63
2022-07-28T12:44:17.744Z,0.82
2022-07-28T12:46:21.752Z,0.77
2022-07-28T12:48:25.188Z,0.80
2022-07-28T12:50:26.910Z,0.70
2022-07-28T12:52:28.537Z,0.75
2022-07-28T12:54:38.318Z,1.00
2022-07-28T12:56:54.697Z,0.70
2022-07-28T12:59:13.636Z,0.73
2022-07-28T13:01:18.031Z,0.60
2022-07-28T13:03:23.122Z,0.68
2022-07-28T13:05:55.892Z,1.08
2022-07-28T13:08:04.989Z,0.85
2022-07-28T13:10:13.214Z,0.60
2022-07-28T13:12:18.188Z,0.70
2022-07-28T13:14:40.661Z,0.73
2022-07-28T13:16:44.766Z,1.00
2022-07-28T13:18:50.998Z,0.63
2022-07-28T13:20:59.434Z,0.77
2022-07-28T13:23:01.865Z,0.70
2022-07-28T13:25:03.459Z,0.95
2022-07-28T13:27:06.842Z,0.68
2022-07-28T13:29:12.736Z,1.50
2022-07-28T13:31:14.542Z,0.70
2022-07-28T13:33:16.128Z,0.70
2022-07-28T13:35:18.861Z,0.90
2022-07-28T13:37:20.995Z,0.47
2022-07-28T13:39:22.593Z,0.75
2022-07-28T13:41:24.091Z,0.73
2022-07-28T13:43:36.405Z,0.38
2022-07-28T13:45:38.496Z,1.10
2022-07-28T13:47:40.269Z,1.05
2022-07-28T13:49:43.772Z,1.20
2022-07-28T13:51:46.880Z,0.40
2022-07-28T13:53:49.301Z,0.73
2022-07-28T13:57:54.256Z,0.70
2022-07-28T13:59:58.121Z,0.80
2022-07-28T14:02:01.108Z,0.98
2022-07-28T14:04:04.146Z,0.73
2022-07-28T14:06:05.967Z,0.50
2022-07-28T14:08:08.562Z,0.55
2022-07-28T14:10:12.118Z,1.00
2022-07-28T14:12:14.985Z,0.82
2022-07-28T14:14:20.055Z,0.82
2022-07-28T14:16:22.810Z,0.50
2022-07-28T14:18:24.897Z,0.90
2022-07-28T14:20:28.217Z,1.35
2022-07-28T14:22:29.930Z,0.70
2022-07-28T14:24:31.388Z,0.40
2022-07-28T14:26:35.732Z,0.50
2022-07-28T14:28:37.657Z,0.68
2022-07-28T14:30:39.520Z,0.65
2022-07-28T14:32:41.254Z,0.93
2022-07-28T14:34:42.838Z,0.40
2022-07-28T14:36:45.232Z,0.60
2022-07-28T14:38:53.385Z,0.52
2022-07-28T14:40:55.622Z,0.32
2022-07-28T14:42:57.290Z,0.50
2022-07-28T14:44:59.485Z,0.60
2022-07-28T14:47:00.976Z,0.40
2022-07-28T14:49:02.530Z,0.50
2022-07-28T14:51:04.330Z,0.60
2022-07-28T14:53:05.819Z,0.60
2022-07-28T14:55:07.733Z,0.50
2022-07-28T14:57:09.430Z,0.90
2022-07-28T14:59:11.142Z,0.95
2022-07-28T15:01:13.215Z,0.95
2022-07-28T15:03:14.830Z,0.85
2022-07-28T15:05:16.379Z,0.80
2022-07-28T15:07:17.950Z,0.93
2022-07-28T15:09:19.523Z,0.90
2022-07-28T15:11:21.097Z,0.90
2022-07-28T15:13:23.364Z,0.55
2022-07-28T15:15:26.632Z,0.60
2022-07-28T15:17:28.225Z,0.80
2022-07-28T15:19:32.322Z,0.75
2022-07-28T15:21:38.326Z,0.80
2022-07-28T15:23:39.804Z,0.73
2022-07-28T15:25:42.801Z,0.50
2022-07-28T15:27:45.621Z,0.60
2022-07-28T15:29:52.090Z,0.52
2022-07-28T15:31:55.281Z,0.77
2022-07-28T15:33:58.672Z,0.85
2022-07-28T15:36:00.298Z,1.20
2022-07-28T15:38:01.943Z,0.73
2022-07-28T15:40:04.247Z,0.80
2022-07-28T15:42:05.874Z,1.02
2022-07-28T15:44:07.481Z,0.80
2022-07-28T15:46:10.561Z,0.93
2022-07-28T15:48:12.123Z,0.82
2022-07-28T15:50:13.850Z,0.65
2022-07-28T15:52:15.439Z,0.75
2022-07-28T15:54:18.075Z,0.70
2022-07-28T15:56:19.967Z,0.60
2022-07-28T15:58:22.112Z,1.02
2022-07-28T16:00:25.009Z,0.43
2022-07-28T16:02:27.958Z,0.60
2022-07-28T16:04:30.676Z,1.27
2022-07-28T16:06:52.236Z,1.03
2022-07-28T16:08:54.927Z,0.40
2022-07-28T16:10:57.727Z,0.77
2022-07-28T16:13:00.019Z,0.47
2022-07-28T16:15:02.673Z,0.40
2022-07-28T16:17:06.070Z,0.60
2022-07-28T16:19:25.146Z,0.52
2022-07-28T16:21:32.540Z,0.70
2022-07-28T16:23:36.010Z,0.50
2022-07-28T16:25:44.666Z,0.85
2022-07-28T16:27:47.562Z,0.65
2022-07-28T16:29:49.606Z,0.60
2022-07-28T16:31:51.474Z,0.70
2022-07-28T16:33:53.032Z,0.70
2022-07-28T16:35:54.527Z,1.00
2022-07-28T16:37:56.011Z,0.60
2022-07-28T16:39:57.688Z,0.93
2022-07-28T16:41:59.438Z,0.63
2022-07-28T16:44:01.237Z,0.80
2022-07-28T16:46:02.801Z,0.85
2022-07-28T16:48:04.447Z,0.95
2022-07-28T16:50:06.178Z,0.57
2022-07-28T16:52:09.875Z,0.93
2022-07-28T16:54:12.430Z,0.90
2022-07-28T16:56:17.344Z,0.93
2022-07-28T16:58:19.943Z,1.30
2022-07-28T17:00:21.663Z,0.80
2022-07-28T17:02:23.318Z,1.10
2022-07-28T17:04:24.804Z,1.10
2022-07-28T17:06:26.484Z,0.70
2022-07-28T17:08:28.050Z,0.82
2022-07-28T17:10:30.655Z,0.77
2022-07-28T17:12:32.118Z,0.65
2022-07-28T17:14:34.291Z,1.20
2022-07-28T17:16:36.572Z,0.75
2022-07-28T17:18:38.115Z,1.00
2022-07-28T17:20:40.776Z,1.10
2022-07-28T17:22:42.843Z,0.95
2022-07-28T17:24:44.392Z,1.00
2022-07-28T17:29:09.881Z,1.02
2022-07-28T17:31:11.484Z,1.10
2022-07-28T17:33:13.107Z,0.90
2022-07-28T17:35:31.549Z,0.90
2022-07-28T17:37:36.283Z,1.35
2022-07-28T17:39:37.803Z,1.00
2022-07-28T17:41:39.665Z,1.00
2022-07-28T17:43:45.340Z,0.88
2022-07-28T17:45:47.894Z,0.73
2022-07-28T17:47:49.421Z,0.73
2022-07-28T17:49:51.060Z,0.70
2022-07-28T17:51:52.696Z,0.80
2022-07-28T17:53:54.471Z,1.60
2022-07-28T17:56:01.054Z,0.57
2022-07-28T17:58:32.678Z,0.90
2022-07-28T18:00:34.161Z,1.13
2022-07-28T18:02:37.414Z,1.10
2022-07-28T18:04:40.270Z,0.95
2022-07-28T18:06:41.926Z,1.08
2022-07-28T18:08:43.880Z,1.05
2022-07-28T18:10:47.597Z,0.70
2022-07-28T18:12:49.158Z,1.05
2022-07-28T18:14:50.644Z,0.70
2022-07-28T18:16:52.403Z,1.35
2022-07-28T18:18:53.947Z,0.80
2022-07-28T18:20:55.448Z,1.20
2022-07-28T18:22:57.439Z,0.90
2022-07-28T18:25:00.805Z,1.05
2022-07-28T18:27:03.167Z,1.15
2022-07-28T18:29:04.848Z,1.23
2022-07-28T18:31:06.656Z,0.75
2022-07-28T18:33:08.280Z,0.73
2022-07-28T18:35:10.412Z,0.60
2022-07-28T18:37:15.077Z,0.88
2022-07-28T18:39:16.582Z,0.93
2022-07-28T18:41:18.024Z,0.88
2022-07-28T18:43:19.591Z,1.10
2022-07-28T18:45:21.304Z,0.70
2022-07-28T18:47:23.859Z,1.02
2022-07-28T18:49:25.396Z,0.80
2022-07-28T18:51:27.715Z,0.80
2022-07-28T18:53:29.388Z,1.30
2022-07-28T18:55:30.932Z,1.00
2022-07-28T18:57:32.518Z,1.15
2022-07-28T18:59:34.295Z,0.75
2022-07-28T19:01:35.838Z,0.95
2022-07-28T19:03:37.408Z,1.00
2022-07-28T19:05:45.533Z,1.33
2022-07-28T19:07:48.936Z,1.17
2022-07-28T19:09:57.621Z,1.55
2022-07-28T19:12:04.149Z,1.10
2022-07-28T19:14:10.425Z,3.67
2022-07-28T19:16:13.194Z,1.08
2022-07-28T19:18:14.688Z,1.20
2022-07-28T19:20:18.915Z,1.33
2022-07-28T19:22:22.542Z,1.25
2022-07-28T19:24:25.676Z,1.02
2022-07-28T19:26:29.162Z,0.95
2022-07-28T19:28:32.755Z,1.60
2022-07-28T19:30:37.232Z,1.65
2022-07-28T19:32:42.874Z,0.93
2022-07-28T19:34:46.827Z,1.73
2022-07-28T19:36:52.620Z,1.50
2022-07-28T19:38:56.651Z,1.83
2022-07-28T19:43:02.095Z,1.63
2022-07-28T19:45:04.882Z,1.70
2022-07-28T19:47:06.507Z,1.30
2022-07-28T19:49:09.158Z,1.55
2022-07-28T19:51:10.806Z,0.80
2022-07-28T19:53:14.959Z,2.08
2022-07-28T19:55:17.696Z,1.35
2022-07-28T19:57:19.542Z,2.22
2022-07-28T19:59:21.873Z,1.63
2022-07-28T20:01:23.520Z,1.42
2022-07-28T20:04:04.064Z,1.23
2022-07-28T20:05:46.703Z,2.17
2022-07-28T20:07:48.301Z,1.10
2022-07-28T20:09:49.782Z,1.50
2022-07-28T20:11:52.193Z,1.50
2022-07-28T20:13:53.671Z,1.90
2022-07-28T20:15:55.796Z,1.70
2022-07-28T20:18:00.208Z,1.67
2022-07-28T20:20:02.437Z,2.30
2022-07-28T20:22:03.962Z,1.70
2022-07-28T20:24:06.384Z,1.58
2022-07-28T20:26:09.367Z,1.88
2022-07-28T20:28:12.287Z,1.55
2022-07-28T20:30:13.996Z,1.73
2022-07-28T20:32:15.548Z,1.60
2022-07-28T20:34:17.979Z,1.80
2022-07-28T20:36:19.805Z,1.50
2022-07-28T20:38:23.309Z,1.70
2022-07-28T20:40:24.835Z,1.50
2022-07-28T20:42:26.768Z,1.65
2022-07-28T20:44:29.633Z,1.80
2022-07-28T20:46:31.856Z,1.73
2022-07-28T20:48:33.666Z,2.00
2022-07-28T20:50:35.453Z,1.83
2022-07-28T20:52:37.059Z,2.25
2022-07-28T20:54:38.535Z,1.55
2022-07-28T20:56:41.466Z,2.78
2022-07-28T20:58:43.036Z,1.73
2022-07-28T21:00:44.589Z,1.45
2022-07-28T21:02:46.079Z,1.50
2022-07-28T21:04:50.232Z,1.42
2022-07-28T21:06:55.344Z,1.55
2022-07-28T21:09:02.968Z,2.58
2022-07-28T21:11:04.488Z,1.55
2022-07-28T21:13:06.226Z,1.48
2022-07-28T21:15:08.378Z,1.63
2022-07-28T21:17:09.933Z,1.20
2022-07-28T21:19:11.539Z,1.58
2022-07-28T21:21:13.247Z,1.58
2022-07-28T21:23:14.728Z,1.42
2022-07-28T21:25:16.253Z,2.05
2022-07-28T21:27:18.182Z,2.00
2022-07-28T21:31:20.799Z,1.50
2022-07-28T21:33:23.396Z,1.70
2022-07-28T21:35:25.279Z,1.80
2022-07-28T21:37:26.775Z,1.60
2022-07-28T21:39:28.441Z,1.88
2022-07-28T21:41:36.553Z,1.95
2022-07-28T21:43:38.526Z,2.08
2022-07-28T21:45:40.223Z,2.33
2022-07-28T21:47:41.804Z,2.13
2022-07-28T21:49:43.322Z,1.70
2022-07-28T21:51:45.771Z,1.33
2022-07-28T21:53:47.835Z,1.70
2022-07-28T21:55:49.413Z,3.45
2022-07-28T21:57:50.864Z,2.20
2022-07-28T21:59:53.796Z,1.90
2022-07-28T22:01:55.365Z,1.33
2022-07-28T22:03:56.993Z,1.45
2022-07-28T22:05:58.478Z,1.63
2022-07-28T22:07:59.998Z,1.85
2022-07-28T22:10:01.596Z,1.67
2022-07-28T22:12:05.630Z,1.77
2022-07-28T22:14:23.276Z,1.88
2022-07-28T22:16:33.771Z,1.58
2022-07-28T22:18:49.232Z,1.95
2022-07-28T22:20:53.625Z,1.92
2022-07-28T22:22:56.297Z,1.70
2022-07-28T22:24:59.398Z,1.63
2022-07-28T22:27:02.914Z,2.08
2022-07-28T22:29:06.561Z,2.22
2022-07-28T22:31:11.143Z,1.45
2022-07-28T22:33:14.938Z,1.88
2022-07-28T22:35:17.718Z,2.00
2022-07-28T22:37:20.683Z,1.75
2022-07-28T22:39:24.536Z,1.75
2022-07-28T22:41:28.527Z,2.03
2022-07-28T22:43:33.780Z,2.00
2022-07-28T22:45:49.400Z,1.70
2022-07-28T22:47:53.404Z,2.00
2022-07-28T22:49:55.878Z,2.55
2022-07-28T22:51:57.351Z,1.65
2022-07-28T22:54:00.432Z,2.38
2022-07-28T22:56:01.900Z,1.88
2022-07-28T22:58:05.544Z,1.77
2022-07-28T23:02:10.986Z,1.50
2022-07-28T23:04:14.804Z,1.75
2022-07-28T23:06:17.319Z,3.30
2022-07-28T23:08:18.885Z,2.35
2022-07-28T23:10:20.391Z,2.10
2022-07-28T23:12:22.003Z,2.22
2022-07-28T23:14:23.459Z,2.30
2022-07-28T23:16:25.191Z,1.88
2022-07-28T23:18:26.691Z,2.63
2022-07-28T23:20:28.207Z,1.80
2022-07-28T23:22:29.723Z,1.80
2022-07-28T23:24:31.190Z,2.30
2022-07-28T23:26:33.122Z,2.20
2022-07-28T23:28:36.409Z,1.83
2022-07-28T23:30:38.347Z,1.95
2022-07-28T23:32:39.891Z,2.20
2022-07-28T23:34:41.647Z,2.30
2022-07-28T23:36:43.179Z,2.45
2022-07-28T23:38:44.676Z,2.00
2022-07-28T23:40:46.139Z,2.22
2022-07-28T23:42:48.585Z,2.20
2022-07-28T23:44:50.347Z,2.08
2022-07-28T23:46:51.866Z,2.25
2022-07-28T23:48:53.533Z,2.67
2022-07-28T23:50:55.046Z,2.42
2022-07-28T23:52:56.522Z,2.40
2022-07-28T23:55:01.883Z,3.13
2022-07-28T23:57:03.403Z,2.00
2022-07-28T23:59:05.009Z,2.13
